Time;durP1;ratioP1;P1;durP2;ratioP2;P2;SDS_P1;SDS_P2;PMS_P1;PMS_P2;Temp;Humidity;BMP_temperature;BMP_pressure;BME280_temperature;BME280_humidity;BME280_pressure;Samples;Min_cycle;Max_cycle;Signal;HPM_P1;HPM_P2
2022/08/24 00:01:55;;;;;;;13.10;6.90;;;20.90;1.00;;;21.56;67.62;99688.16;5020331;28;119616;-74
2022/08/24 00:04:25;;;;;;;11.80;7.60;;;20.80;1.00;;;21.53;67.84;99687.75;5002741;28;119409;-73
2022/08/24 00:06:54;;;;;;;13.13;7.40;;;20.80;1.00;;;21.54;67.50;99692.06;5017065;28;130280;-73
2022/08/24 00:09:22;;;;;;;14.40;7.43;;;20.80;1.00;;;21.56;67.28;99696.44;5000042;28;129241;-76
2022/08/24 00:11:51;;;;;;;13.90;8.35;;;20.80;1.00;;;21.51;67.72;99701.13;5000476;28;119442;-76
2022/08/24 00:14:20;;;;;;;14.13;7.72;;;20.70;1.00;;;21.49;67.85;99697.16;5001015;28;119619;-74
2022/08/24 00:16:49;;;;;;;12.63;7.43;;;20.70;1.00;;;21.46;67.84;99701.44;4985020;28;128572;-74
2022/08/24 00:19:18;;;;;;;16.20;8.05;;;20.80;1.00;;;21.46;68.26;99695.13;4999578;28;129803;-72
2022/08/24 00:21:48;;;;;;;13.10;7.88;;;20.80;1.00;;;21.45;67.95;99688.81;4984951;28;118500;-73
2022/08/24 00:24:17;;;;;;;10.48;7.32;;;20.70;1.00;;;21.43;67.76;99698.66;4985793;28;118182;-72
2022/08/24 00:26:46;;;;;;;16.33;7.38;;;20.70;1.00;;;21.43;67.97;99696.69;4999423;28;130348;-75
2022/08/24 00:29:18;;;;;;;13.52;8.38;;;20.70;1.00;;;21.42;68.01;99703.38;4999487;28;130259;-74
2022/08/24 00:31:46;;;;;;;13.57;7.32;;;20.60;1.00;;;21.40;67.93;99702.97;4991897;28;122040;-74
2022/08/24 00:34:16;;;;;;;11.98;7.57;;;20.60;1.00;;;21.36;67.82;99696.59;4981402;28;122518;-75
2022/08/24 00:36:47;;;;;;;11.50;7.90;;;20.60;1.00;;;21.34;68.27;99696.19;5001082;28;129901;-74
2022/08/24 00:39:16;;;;;;;14.32;7.43;;;20.60;1.00;;;21.34;67.99;99698.97;4984601;28;129584;-73
2022/08/24 00:41:49;;;;;;;15.48;8.82;;;20.60;1.00;;;21.34;68.26;99701.72;4981826;28;119386;-74
2022/08/24 00:44:18;;;;;;;14.02;7.88;;;20.60;1.00;;;21.33;68.02;99708.41;4984778;28;119103;-75
2022/08/24 00:46:55;;;;;;;14.40;7.88;;;20.70;1.00;;;21.31;68.27;99700.50;4968425;28;128743;-74
2022/08/24 00:49:33;;;;;;;13.35;7.60;;;20.60;1.00;;;21.32;68.10;99709.59;5000006;28;130163;-75
2022/08/24 00:52:09;;;;;;;13.98;8.10;;;20.50;1.00;;;21.30;68.13;99704.47;5017880;28;120320;-74
2022/08/24 00:54:43;;;;;;;14.02;7.22;;;20.60;1.00;;;21.33;68.06;99708.41;5001340;28;119395;-75
2022/08/24 00:57:15;;;;;;;11.88;7.93;;;20.60;1.00;;;21.32;67.92;99709.59;5016867;28;130336;-74
2022/08/24 00:59:48;;;;;;;14.02;7.43;;;20.60;1.00;;;21.26;68.40;99700.06;5017496;28;129507;-74
2022/08/24 01:02:27;;;;;;;16.35;7.13;;;20.60;1.00;;;21.33;68.17;99703.69;5001204;28;119578;-75
2022/08/24 01:04:59;;;;;;;12.18;7.60;;;20.80;1.00;;;21.30;67.79;99701.69;5004396;28;119224;-74
2022/08/24 01:07:32;;;;;;;11.68;7.55;;;20.70;1.00;;;21.29;68.03;99702.84;5000905;28;129915;-74
2022/08/24 01:10:05;;;;;;;12.52;7.85;;;20.60;1.00;;;21.27;67.94;99701.63;5018737;28;129893;-75
2022/08/24 01:12:36;;;;;;;12.43;8.23;;;20.70;1.00;;;21.29;67.64;99708.38;5019714;28;119666;-73
2022/08/24 01:15:09;;;;;;;11.88;7.68;;;20.70;1.00;;;21.28;67.89;99704.03;4987518;28;119146;-74
2022/08/24 01:20:25;;;;;;;15.85;7.93;;;20.70;1.00;;;21.29;67.71;99702.06;5019057;28;129343;-73
2022/08/24 01:23:07;;;;;;;13.63;8.15;;;20.60;1.00;;;21.26;67.70;99697.31;5017964;28;121674;-73
2022/08/24 01:25:42;;;;;;;12.30;8.00;;;20.60;1.00;;;21.28;67.82;99701.25;5018447;28;121990;-74
2022/08/24 01:28:15;;;;;;;12.10;7.28;;;20.60;1.00;;;21.25;67.72;99701.25;5003788;28;129601;-74
2022/08/24 01:30:44;;;;;;;15.52;8.18;;;20.60;1.00;;;21.26;67.54;99705.59;5017391;28;129483;-75
2022/08/24 01:33:27;;;;;;;16.15;8.27;;;20.50;1.00;;;21.21;67.89;99701.22;5018276;28;119977;-75
2022/08/24 01:36:01;;;;;;;13.80;7.93;;;20.60;1.00;;;21.19;68.04;99701.59;5017458;28;119338;-74
2022/08/24 01:38:33;;;;;;;11.68;7.80;;;20.60;1.00;;;21.16;68.01;99705.09;5017235;28;130582;-74
2022/08/24 01:41:05;;;;;;;13.13;7.75;;;20.50;1.00;;;21.13;68.14;99705.84;5017626;28;129890;-75
2022/08/24 01:43:33;;;;;;;13.48;8.15;;;20.50;1.00;;;21.13;68.25;99705.84;5001211;28;119674;-76
2022/08/24 01:46:02;;;;;;;12.55;7.82;;;20.50;1.00;;;21.11;68.47;99707.41;5008068;28;119223;-73
2022/08/24 01:48:31;;;;;;;11.05;7.55;;;20.50;1.00;;;21.11;68.22;99719.22;5002947;28;130071;-74
2022/08/24 01:51:00;;;;;;;13.60;7.57;;;20.40;1.00;;;21.08;68.30;99708.16;5024131;28;129482;-74
2022/08/24 01:53:29;;;;;;;12.82;7.22;;;20.40;1.00;;;21.03;68.31;99712.03;5004234;28;119855;-73
2022/08/24 01:55:57;;;;;;;12.13;7.82;;;20.40;1.00;;;20.99;68.49;99706.50;5007239;28;119302;-74
2022/08/24 01:58:27;;;;;;;11.75;7.13;;;20.30;1.00;;;20.98;68.69;99707.66;5003827;28;130343;-72
2022/08/24 02:00:56;;;;;;;12.65;7.57;;;20.30;1.00;;;20.95;68.71;99708.41;5006810;28;129293;-73
2022/08/24 02:03:25;;;;;;;11.98;7.43;;;20.30;1.00;;;20.89;68.85;99709.91;5021878;28;119834;-72
2022/08/24 02:05:57;;;;;;;10.73;7.32;;;20.30;1.00;;;20.90;69.07;99707.97;5007922;28;119105;-74
2022/08/24 02:08:26;;;;;;;11.43;7.10;;;20.30;1.00;;;20.92;69.12;99711.13;5003955;28;130678;-74
2022/08/24 02:10:55;;;;;;;11.27;7.72;;;20.30;1.00;;;20.90;68.92;99708.75;5023698;28;129292;-74
2022/08/24 02:13:24;;;;;;;14.10;7.53;;;20.30;1.00;;;20.91;68.77;99704.03;5019653;28;123341;-73
2022/08/24 02:15:54;;;;;;;10.25;7.43;;;20.20;1.00;;;20.89;68.94;99711.88;5006965;28;121953;-74
2022/08/24 02:18:23;;;;;;;13.25;8.30;;;20.20;1.00;;;20.87;69.09;99711.47;5003115;28;129843;-75
2022/08/24 02:20:52;;;;;;;10.45;6.90;;;20.20;1.00;;;20.88;68.86;99705.59;5003364;28;129512;-72
2022/08/24 02:23:23;;;;;;;11.85;7.53;;;20.20;1.00;;;20.89;68.73;99718.19;5003701;28;120027;-74
2022/08/24 02:25:52;;;;;;;13.40;8.07;;;20.20;1.00;;;20.90;68.99;99719.00;5004002;28;120325;-74
2022/08/24 02:28:20;;;;;;;12.52;7.35;;;20.30;1.00;;;20.91;68.65;99728.84;5003411;28;130386;-73
2022/08/24 02:30:49;;;;;;;15.65;7.97;;;20.30;1.00;;;20.92;68.69;99727.69;5006047;28;129643;-75
2022/08/24 02:33:20;;;;;;;11.10;6.90;;;20.20;1.00;;;20.97;68.59;99738.38;4989922;28;118763;-74
2022/08/24 02:35:48;;;;;;;10.07;7.25;;;20.20;1.00;;;20.97;68.22;99741.13;5006769;28;119062;-75
2022/08/24 02:38:18;;;;;;;11.45;7.72;;;20.30;1.00;;;20.95;67.95;99740.72;5001598;28;130271;-73
2022/08/24 02:40:46;;;;;;;10.68;7.35;;;20.30;1.00;;;20.96;68.11;99734.03;5003222;28;129447;-75
2022/08/24 02:43:15;;;;;;;11.80;8.20;;;20.20;1.00;;;20.92;68.49;99744.22;4989773;28;119241;-75
2022/08/24 02:45:47;;;;;;;11.75;7.88;;;20.10;1.00;;;20.88;68.61;99755.22;5006154;28;119293;-74
2022/08/24 02:48:16;;;;;;;12.40;8.05;;;20.10;1.00;;;20.86;68.44;99746.53;5019887;28;130155;-73
2022/08/24 02:50:51;;;;;;;12.35;7.88;;;20.10;1.00;;;20.87;68.47;99750.09;5020744;28;129470;-74
2022/08/24 02:53:22;;;;;;;13.18;7.40;;;20.10;1.00;;;20.81;68.66;99749.63;5020250;28;119866;-73
2022/08/24 02:55:51;;;;;;;13.85;7.65;;;20.00;1.00;;;20.75;69.47;99753.88;5002617;28;119624;-75
2022/08/24 02:58:20;;;;;;;13.50;8.25;;;20.00;1.00;;;20.76;68.73;99744.44;5005686;28;130135;-73
2022/08/24 03:00:50;;;;;;;12.00;8.32;;;20.10;1.00;;;20.76;68.48;99747.97;5021007;28;130000;-73
2022/08/24 03:03:21;;;;;;;16.05;9.05;;;20.00;1.00;;;20.75;68.60;99751.13;5004570;28;122004;-74
2022/08/24 03:05:51;;;;;;;13.55;8.23;;;20.00;1.00;;;20.74;68.24;99750.31;5006178;28;121481;-74
2022/08/24 03:08:20;;;;;;;12.10;8.13;;;20.00;1.00;;;20.70;68.73;99755.00;5005287;28;129446;-77
2022/08/24 03:10:48;;;;;;;13.40;8.25;;;20.00;1.00;;;20.77;68.25;99768.88;5005491;28;128466;-73
2022/08/24 03:13:18;;;;;;;15.93;7.78;;;20.10;1.00;;;20.79;68.44;99752.75;5005724;28;120312;-74
2022/08/24 03:15:47;;;;;;;18.25;9.50;;;20.10;1.00;;;20.80;68.18;99759.88;4989144;28;119734;-73
2022/08/24 03:18:15;;;;;;;13.80;8.20;;;20.00;1.00;;;20.86;68.03;99756.75;5005566;28;128582;-74
2022/08/24 03:20:44;;;;;;;10.45;7.88;;;20.00;1.00;;;20.85;67.73;99755.16;5005407;28;129168;-73
2022/08/24 03:23:14;;;;;;;11.55;7.75;;;20.00;1.00;;;20.80;68.31;99748.81;5006079;28;118806;-72
2022/08/24 03:25:43;;;;;;;14.60;8.55;;;20.00;1.00;;;20.88;68.54;99754.41;5005930;28;119093;-72
2022/08/24 03:28:12;;;;;;;17.67;9.70;;;20.10;1.00;;;20.91;67.59;99762.75;5020922;28;129891;-72
2022/08/24 03:30:42;;;;;;;12.88;9.65;;;20.10;1.00;;;20.96;67.29;99759.66;5018940;28;129416;-74
2022/08/24 03:33:12;;;;;;;14.13;9.65;;;20.10;1.00;;;21.04;67.14;99762.50;5022819;28;119625;-72
2022/08/24 03:35:41;;;;;;;16.08;10.23;;;20.20;1.00;;;21.11;66.88;99768.88;4989618;28;119025;-71
2022/08/24 03:38:12;;;;;;;18.52;9.60;;;20.20;1.00;;;21.14;67.02;99762.63;5005502;28;130161;-74
2022/08/24 03:40:42;;;;;;;15.05;8.93;;;20.20;1.00;;;21.20;66.21;99765.84;5002296;28;129473;-73
2022/08/24 03:43:44;;;;;;;12.80;9.10;;;20.30;1.00;;;21.28;65.94;99773.03;5005195;28;120040;-73
2022/08/24 03:46:01;;;;;;;11.63;8.18;;;20.30;1.00;;;21.34;65.97;99770.72;5005419;28;119043;-73
2022/08/24 03:48:31;;;;;;;15.65;8.35;;;20.40;1.00;;;21.48;64.89;99775.59;5005249;28;129367;-71
2022/08/24 03:51:00;;;;;;;14.05;8.10;;;20.50;1.00;;;21.59;65.17;99781.28;5004128;28;129542;-73
2022/08/24 03:53:29;;;;;;;12.02;7.38;;;20.60;1.00;;;21.63;64.41;99782.06;5004396;28;121991;-72
2022/08/24 03:55:59;;;;;;;11.63;7.32;;;20.60;1.00;;;21.75;64.33;99779.03;5003035;28;122112;-73
2022/08/24 03:58:28;;;;;;;12.52;7.75;;;20.70;1.00;;;21.85;64.63;99788.63;5005872;28;130061;-72
2022/08/24 04:00:57;;;;;;;11.35;7.20;;;20.70;1.00;;;21.94;63.55;99786.34;5018840;28;129420;-71
2022/08/24 04:03:26;;;;;;;13.95;7.65;;;20.80;1.00;;;21.99;63.47;99787.97;4988652;28;118989;-72
2022/08/24 04:05:55;;;;;;;11.35;7.35;;;20.80;1.00;;;22.01;62.94;99780.06;5020360;28;120474;-72
2022/08/24 04:08:24;;;;;;;11.90;7.43;;;20.80;1.00;;;22.07;63.55;99784.06;5003263;27;129834;-73
2022/08/24 04:10:53;;;;;;;14.00;7.38;;;20.90;1.00;;;22.19;62.79;99783.78;5033290;27;129702;-73
2022/08/24 04:13:23;;;;;;;12.90;6.95;;;20.90;1.00;;;22.29;62.94;99790.53;5019615;28;120001;-72
2022/08/24 04:15:53;;;;;;;14.25;7.15;;;20.90;1.00;;;22.36;62.57;99789.81;4988133;28;118873;-73
2022/08/24 04:18:21;;;;;;;11.65;7.22;;;20.90;1.00;;;22.42;62.25;99799.34;5003559;28;129786;-72
2022/08/24 04:20:50;;;;;;;12.70;7.72;;;21.00;1.00;;;22.47;61.78;99790.72;5001690;28;129987;-71
2022/08/24 04:23:19;;;;;;;11.52;7.63;;;21.10;1.00;;;22.51;61.75;99790.72;5002088;28;119630;-73
2022/08/24 04:25:49;;;;;;;9.90;7.40;;;21.10;1.00;;;22.51;61.28;99785.19;5002148;28;119648;-72
2022/08/24 04:28:19;;;;;;;10.02;7.40;;;21.10;1.00;;;22.51;61.44;99791.50;4988163;28;129068;-72
2022/08/24 04:30:50;;;;;;;11.07;7.22;;;21.20;1.00;;;22.53;61.34;99783.63;5018342;28;129288;-71
2022/08/24 04:33:30;;;;;;;12.50;7.72;;;21.20;1.00;;;22.57;61.03;99789.97;4988611;28;119580;-74
2022/08/24 04:36:00;;;;;;;11.00;7.43;;;21.30;1.00;;;22.63;60.89;99789.63;5018880;28;119755;-72
2022/08/24 04:38:32;;;;;;;13.95;8.07;;;21.30;1.00;;;22.67;60.96;99795.94;5003924;28;129858;-72
2022/08/24 04:41:19;;;;;;;10.98;7.50;;;21.40;1.00;;;22.63;60.74;99787.63;5001452;28;129314;-72
2022/08/24 04:43:50;;;;;;;13.35;6.88;;;21.40;1.00;;;22.79;60.68;99792.84;5020463;28;122278;-72
2022/08/24 04:46:21;;;;;;;12.95;7.97;;;21.50;1.00;;;22.73;60.58;99788.88;5018274;28;121950;-72
2022/08/24 04:48:50;;;;;;;12.90;7.63;;;21.60;1.00;;;22.90;60.48;99798.44;5021296;28;129592;-71
2022/08/24 04:51:21;;;;;;;10.93;7.53;;;21.60;1.00;;;22.98;59.59;99794.53;5003936;28;130519;-72
2022/08/24 04:53:50;;;;;;;12.23;7.57;;;21.70;1.00;;;23.07;59.64;99794.16;5005118;28;119252;-71
2022/08/24 04:56:23;;;;;;;14.15;7.40;;;21.80;1.00;;;23.14;59.76;99794.25;5001397;28;119081;-71
2022/08/24 04:58:55;;;;;;;14.65;7.20;;;21.90;1.00;;;23.27;58.94;99791.91;5021254;28;130084;-72
2022/08/24 05:01:28;;;;;;;11.82;7.68;;;21.90;1.00;;;23.38;58.77;99791.94;5019662;28;130043;-72
2022/08/24 05:03:58;;;;;;;13.50;7.43;;;22.00;1.00;;;23.47;58.26;99800.66;5004751;28;118298;-72
2022/08/24 05:06:29;;;;;;;15.20;7.82;;;22.10;1.00;;;23.50;58.90;99797.13;5001176;28;120145;-74
2022/08/24 05:09:00;;;;;;;10.85;7.35;;;22.10;1.00;;;23.51;57.70;99793.13;5019658;28;129625;-72
2022/08/24 05:11:30;;;;;;;15.35;7.88;;;22.20;1.00;;;23.60;57.36;99798.31;5018180;28;130888;-74
2022/08/24 05:13:59;;;;;;;13.43;8.07;;;22.30;1.00;;;23.80;57.73;99790.44;5004283;28;119977;-73
2022/08/24 05:16:31;;;;;;;14.43;7.70;;;22.40;1.00;;;23.98;57.11;99791.25;5018179;28;119125;-71
2022/08/24 05:19:01;;;;;;;11.85;7.40;;;22.50;1.00;;;24.19;56.38;99795.22;5020021;28;129679;-72
2022/08/24 05:21:31;;;;;;;18.60;8.15;;;22.70;1.00;;;24.25;55.75;99788.09;5004253;28;129606;-74
2022/08/24 05:24:01;;;;;;;12.77;8.57;;;22.70;1.00;;;24.21;55.02;99792.81;5024774;28;119157;-72
2022/08/24 05:26:33;;;;;;;17.05;8.32;;;22.70;1.00;;;24.35;54.99;99786.47;5006068;27;120179;-75
2022/08/24 05:29:03;;;;;;;15.70;8.52;;;22.80;1.00;;;24.38;54.83;99786.47;5026468;27;129867;-72
2022/08/24 05:31:53;;;;;;;13.20;7.65;;;22.80;1.00;;;24.53;54.71;99792.00;5045403;27;132062;-73
2022/08/24 05:34:24;;;;;;;9.90;6.97;;;22.90;1.00;;;24.56;54.59;99785.66;5026773;27;121726;-75
2022/08/24 05:36:54;;;;;;;10.20;6.68;;;23.00;1.00;;;24.72;53.65;99783.25;5024414;27;122783;-71
2022/08/24 05:39:43;;;;;;;13.73;8.52;;;23.10;1.00;;;24.79;53.92;99787.19;5002875;27;129781;-72
2022/08/24 05:42:12;;;;;;;14.90;8.43;;;23.20;1.00;;;24.82;53.48;99789.16;5024033;27;129076;-74
2022/08/24 05:44:47;;;;;;;10.97;7.03;;;23.30;1.00;;;24.87;53.16;99783.19;5027581;27;119824;-72
2022/08/24 05:47:21;;;;;;;16.40;7.85;;;23.40;1.00;;;25.02;52.67;99795.84;5024338;27;120038;-72
2022/08/24 05:49:52;;;;;;;15.32;8.10;;;23.50;1.00;;;25.21;52.37;99793.78;5043730;27;129484;-72
2022/08/24 05:52:22;;;;;;;12.05;8.18;;;23.60;1.00;;;25.33;51.83;99793.34;5024423;27;130014;-74
2022/08/24 05:54:53;;;;;;;18.58;9.07;;;23.70;1.00;;;25.28;50.87;99793.75;5024443;27;119262;-73
2022/08/24 05:57:23;;;;;;;14.55;8.63;;;23.70;1.00;;;25.21;50.70;99791.00;5023861;27;119505;-73
2022/08/24 06:00:14;;;;;;;16.23;8.68;;;23.70;1.00;;;25.20;51.44;99790.22;5009205;27;129319;-72
2022/08/24 06:02:52;;;;;;;16.65;9.23;;;23.80;1.00;;;25.48;50.73;99789.28;5010274;27;128627;-73
2022/08/24 06:05:21;;;;;;;22.38;9.65;;;23.90;1.00;;;25.65;50.74;99792.38;5027020;27;119218;-69
2022/08/24 06:07:50;;;;;;;16.58;9.32;;;24.00;1.00;;;25.79;49.89;99789.50;5024064;27;120003;-74
2022/08/24 06:10:20;;;;;;;19.25;9.40;;;24.20;1.00;;;25.99;49.60;99788.97;5026811;27;130020;-71
2022/08/24 06:12:49;;;;;;;14.27;8.70;;;24.40;1.00;;;26.10;48.55;99794.44;5025919;27;128454;-71
2022/08/24 06:15:20;;;;;;;18.58;8.98;;;24.40;1.00;;;26.15;48.16;99786.44;5023671;27;119526;-71
2022/08/24 06:17:50;;;;;;;15.27;9.02;;;24.50;1.00;;;26.41;47.65;99786.97;5040482;27;119479;-72
2022/08/24 06:20:20;;;;;;;20.00;8.43;;;24.70;1.00;;;26.53;46.95;99786.47;5026666;27;129246;-74
2022/08/24 06:22:49;;;;;;;16.58;8.68;;;24.80;1.00;;;26.64;46.83;99791.91;5026492;27;129003;-70
2022/08/24 06:28:05;;;;;;;16.73;8.00;;;24.80;1.00;;;26.67;46.13;99793.13;5023756;27;122756;-73
2022/08/24 06:30:34;;;;;;;14.32;7.75;;;24.90;1.00;;;26.63;45.51;99798.72;5026192;27;130005;-73
2022/08/24 06:33:14;;;;;;;18.00;7.95;;;24.80;1.00;;;26.84;44.92;99791.34;5023253;27;129372;-69
2022/08/24 06:35:46;;;;;;;14.43;7.32;;;25.00;1.00;;;26.87;45.19;99794.06;5043534;27;119244;-72
2022/08/24 06:38:15;;;;;;;18.83;7.80;;;25.10;1.00;;;27.04;44.90;99794.28;5043540;27;119126;-73
2022/08/24 06:40:44;;;;;;;15.25;7.15;;;25.20;1.00;;;27.07;43.92;99799.03;5039933;27;129913;-72
2022/08/24 06:43:13;;;;;;;13.65;6.95;;;25.10;1.00;;;27.13;43.61;99793.75;5026285;27;129761;-71
2022/08/24 06:46:02;;;;;;;13.38;7.05;;;25.10;1.00;;;27.22;43.16;99792.06;5043923;27;120216;-72
2022/08/24 06:48:36;;;;;;;12.52;7.03;;;25.20;1.00;;;27.29;43.43;99799.53;5026852;27;119171;-71
2022/08/24 06:51:10;;;;;;;14.43;7.13;;;25.30;1.00;;;27.40;43.18;99800.19;5021649;27;129249;-72
2022/08/24 06:53:41;;;;;;;16.58;7.00;;;25.40;1.00;;;27.53;43.19;99797.63;5052591;27;129655;-73
2022/08/24 06:56:12;;;;;;;18.83;7.57;;;25.50;1.00;;;27.73;42.73;99799.72;5047020;27;119513;-73
2022/08/24 06:58:41;;;;;;;13.70;7.30;;;25.70;1.00;;;27.90;42.62;99793.06;5043471;27;119578;-74
2022/08/24 07:01:17;;;;;;;14.50;6.82;;;25.90;1.00;;;27.87;42.14;99793.91;5046219;27;128657;-73
2022/08/24 07:03:49;;;;;;;13.77;7.32;;;25.90;1.00;;;28.11;42.16;99791.97;5043201;27;129573;-73
2022/08/24 07:06:36;;;;;;;16.45;7.28;;;26.10;1.00;;;28.14;41.30;99795.91;5046395;27;119246;-72
2022/08/24 07:09:06;;;;;;;14.55;6.72;;;26.10;1.00;;;28.31;41.76;99794.81;5043482;27;119466;-72
2022/08/24 07:11:35;;;;;;;15.68;8.15;;;26.30;1.00;;;28.41;41.97;99803.44;5046112;27;130108;-73
2022/08/24 07:14:05;;;;;;;11.52;7.50;;;26.40;1.00;;;28.50;41.52;99789.69;5046598;27;128871;-72
2022/08/24 07:16:35;;;;;;;13.00;7.10;;;26.50;1.00;;;28.61;41.62;99795.09;5028632;27;121032;-73
2022/08/24 07:19:06;;;;;;;18.42;8.25;;;26.50;1.00;;;28.56;40.60;99798.34;5046252;27;121956;-74
2022/08/24 07:21:35;;;;;;;23.52;7.97;;;26.60;1.00;;;28.57;41.05;99795.13;5061423;27;129973;-72
2022/08/24 07:24:07;;;;;;;14.20;7.32;;;26.80;1.00;;;28.63;40.71;99801.84;5046432;27;129617;-75
2022/08/24 07:26:39;;;;;;;15.95;7.60;;;26.70;1.00;;;28.43;40.94;99796.19;5060137;27;120382;-73
2022/08/24 07:29:14;;;;;;;14.77;8.43;;;26.60;1.00;;;28.39;41.33;99800.25;5046597;27;119028;-75
2022/08/24 07:31:47;;;;;;;13.43;8.23;;;26.80;1.00;;;28.77;41.73;99791.63;5042601;27;130006;-74
2022/08/24 07:34:37;;;;;;;14.18;6.90;;;27.00;1.00;;;28.87;41.16;99787.81;5064411;27;129758;-73
2022/08/24 07:37:08;;;;;;;18.75;7.47;;;27.10;1.00;;;29.13;39.20;99797.25;5043486;27;120417;-73
2022/08/24 07:39:39;;;;;;;18.88;8.15;;;27.30;1.00;;;28.97;39.52;99792.41;5039102;27;119541;-71
2022/08/24 07:42:08;;;;;;;13.88;7.78;;;27.30;1.00;;;29.22;39.72;99793.91;5041044;27;129971;-74
2022/08/24 07:44:39;;;;;;;15.75;8.55;;;27.30;1.00;;;28.95;39.30;99792.03;5046136;27;129664;-74
2022/08/24 07:47:07;;;;;;;16.73;8.27;;;27.30;1.00;;;28.74;39.55;99798.84;5043185;27;119798;-72
2022/08/24 07:49:37;;;;;;;11.88;7.85;;;27.20;1.00;;;28.92;39.74;99804.06;5045741;27;118782;-73
2022/08/24 07:52:09;;;;;;;17.02;7.88;;;27.30;1.00;;;29.17;39.00;99797.16;5059362;27;130005;-72
2022/08/24 07:54:39;;;;;;;12.98;7.57;;;27.50;1.00;;;29.31;39.51;99801.69;5060872;27;129434;-71
2022/08/24 07:57:07;;;;;;;18.90;7.82;;;27.60;1.00;;;29.38;37.68;99807.91;5029264;27;118710;-74
2022/08/24 07:59:37;;;;;;;14.30;7.53;;;27.70;1.00;;;29.25;37.96;99798.63;5061359;27;119389;-72
2022/08/24 08:02:07;;;;;;;19.65;8.55;;;27.70;1.00;;;29.61;37.95;99803.41;5046030;27;129637;-74
2022/08/24 08:04:38;;;;;;;15.32;7.72;;;28.00;1.00;;;29.72;37.01;99801.16;5042484;27;129606;-75
2022/08/24 08:07:07;;;;;;;13.55;6.75;;;28.00;1.00;;;30.03;37.94;99809.22;5059892;27;121921;-72
2022/08/24 08:09:38;;;;;;;14.63;7.43;;;28.00;1.00;;;30.19;36.11;99814.03;5042570;27;122582;-72
2022/08/24 08:12:07;;;;;;;13.45;7.15;;;28.20;1.00;;;30.37;35.37;99799.56;5045636;27;128527;-70
2022/08/24 08:14:37;;;;;;;18.85;7.03;;;28.20;1.00;;;30.43;35.54;99805.44;5028677;27;128606;-71
2022/08/24 08:17:06;;;;;;;15.75;7.82;;;28.30;1.00;;;30.61;35.45;99808.53;5029124;27;119077;-71
2022/08/24 08:19:34;;;;;;;16.17;7.97;;;28.50;1.00;;;30.76;34.94;99810.94;5045768;27;118997;-70
2022/08/24 08:25:10;;;;;;;11.48;7.50;;;28.60;1.00;;;30.91;34.88;99805.75;5060742;27;129567;-71
2022/08/24 08:27:39;;;;;;;16.05;7.90;;;28.60;1.00;;;31.09;35.08;99805.22;5028898;27;118857;-73
2022/08/24 08:30:09;;;;;;;15.80;7.68;;;28.90;1.00;;;31.01;34.83;99804.69;5062831;27;119764;-73
2022/08/24 08:32:38;;;;;;;15.07;7.05;;;29.00;1.00;;;31.04;33.55;99803.78;5040976;27;131062;-74
2022/08/24 08:35:08;;;;;;;13.73;6.95;;;29.00;1.00;;;30.77;35.56;99807.69;5060423;27;130068;-74
2022/08/24 08:37:39;;;;;;;14.85;6.75;;;29.00;1.00;;;30.94;34.31;99805.63;5028254;27;119743;-72
2022/08/24 08:40:24;;;;;;;10.07;6.78;;;29.10;1.00;;;31.11;33.67;99809.16;5060506;27;119448;-74
2022/08/24 08:43:03;;;;;;;14.18;6.25;;;29.30;1.00;;;31.42;34.53;99808.66;5060159;27;130141;-74
2022/08/24 08:45:48;;;;;;;17.38;7.13;;;29.40;1.00;;;31.68;34.25;99806.69;5060134;27;129764;-73
2022/08/24 08:49:31;;;;;;;10.48;6.20;;;29.50;1.00;;;31.61;33.21;99811.72;5038199;27;119362;-74
2022/08/24 08:52:47;;;;;;;10.75;6.22;;;29.60;1.00;;;31.93;32.26;99805.09;5003338;27;119420;-77
2022/08/24 08:55:34;;;;;;;9.73;4.78;;;29.80;1.00;;;31.71;30.60;99804.97;5036349;27;129383;-75
2022/08/24 08:58:27;;;;;;;8.35;4.65;;;29.80;1.00;;;31.65;31.46;99809.56;5048466;27;128834;-78
2022/08/24 09:01:05;;;;;;;11.10;5.07;;;29.70;1.00;;;31.83;32.18;99809.00;5044136;27;122104;-74
2022/08/24 09:04:34;;;;;;;10.35;5.43;;;29.90;1.00;;;31.90;31.54;99806.75;5047252;27;121613;-74
2022/08/24 09:07:34;;;;;;;11.60;4.85;;;29.90;1.00;;;32.12;31.41;99806.09;5044891;27;129570;-75
2022/08/24 09:10:31;;;;;;;10.95;5.75;;;30.00;1.00;;;32.35;31.63;99806.91;5047587;27;129103;-73
2022/08/24 09:13:23;;;;;;;14.20;5.75;;;30.10;1.00;;;32.41;30.96;99805.88;5045203;27;119413;-75
2022/08/24 09:16:16;;;;;;;11.80;5.78;;;30.10;1.00;;;32.45;31.38;99805.75;5031424;27;118432;-72
2022/08/24 09:19:09;;;;;;;15.27;6.38;;;30.20;1.00;;;32.37;31.42;99813.66;5048122;27;129823;-74
2022/08/24 09:21:49;;;;;;;13.73;5.78;;;30.20;1.00;;;32.63;30.67;99809.94;5045361;27;129433;-74
2022/08/24 09:25:04;;;;;;;11.70;5.47;;;30.20;1.00;;;32.64;30.79;99805.91;5031678;27;119067;-75
2022/08/24 09:28:12;;;;;;;12.25;5.82;;;30.40;1.00;;;32.65;29.87;99813.91;5020431;27;118457;-74
2022/08/24 09:31:28;;;;;;;13.45;4.90;;;30.40;1.00;;;32.74;30.43;99808.38;5061946;27;129745;-77
2022/08/24 09:34:16;;;;;;;11.70;5.22;;;30.50;1.00;;;32.79;30.30;99802.16;5044670;27;129900;-75
2022/08/24 09:36:55;;;;;;;8.55;4.90;;;30.70;1.00;;;32.70;28.59;99802.06;5048691;27;119586;-74
2022/08/24 09:39:43;;;;;;;14.93;5.13;;;30.50;1.00;;;32.89;28.87;99799.41;5045344;27;119326;-76
2022/08/24 09:42:57;;;;;;;10.50;5.28;;;30.60;1.00;;;32.82;29.21;99800.47;5062851;27;130398;-73
2022/08/24 09:46:06;;;;;;;13.75;4.80;;;30.70;1.00;;;32.85;28.33;99799.53;5063031;27;129600;-75
2022/08/24 09:49:15;;;;;;;11.52;5.15;;;30.80;1.00;;;33.04;28.30;99788.41;5063195;27;120121;-76
2022/08/24 09:52:25;;;;;;;10.25;4.72;;;31.00;1.00;;;32.66;28.39;99797.81;5065555;27;120149;-75
2022/08/24 09:55:46;;;;;;;10.23;5.80;;;30.80;1.00;;;32.52;28.30;99799.91;5046750;27;129229;-74
2022/08/24 09:58:31;;;;;;;11.65;5.22;;;30.80;1.00;;;32.61;29.53;99796.34;5061609;27;129893;-73
2022/08/24 10:01:10;;;;;;;17.13;5.70;;;30.80;1.00;;;32.97;29.40;99800.69;5060722;27;122570;-74
2022/08/24 10:04:06;;;;;;;7.97;3.95;;;31.20;1.00;;;33.00;27.09;99791.34;5046882;27;121270;-72
2022/08/24 10:06:49;;;;;;;10.40;4.73;;;31.20;1.00;;;33.21;26.83;99797.41;5061553;27;130237;-74
2022/08/24 10:10:00;;;;;;;8.90;4.68;;;31.20;1.00;;;33.42;25.83;99795.81;5061249;27;129698;-75
2022/08/24 10:12:53;;;;;;;10.38;4.40;;;31.50;1.00;;;33.42;25.27;99790.97;5061361;27;119658;-74
2022/08/24 10:15:31;;;;;;;7.40;4.00;;;31.30;1.00;;;33.47;25.56;99798.81;5061672;27;119427;-75
2022/08/24 10:18:21;;;;;;;12.93;4.80;;;31.40;1.00;;;33.39;25.36;99791.88;5061160;27;129770;-74
2022/08/24 10:21:20;;;;;;;8.88;4.00;;;31.50;1.00;;;33.66;25.69;99782.78;5046389;27;129384;-74
2022/08/24 10:24:28;;;;;;;11.02;3.80;;;31.50;1.00;;;33.59;25.03;99771.81;5061542;27;120199;-74
2022/08/24 10:27:23;;;;;;;19.83;5.07;;;31.80;1.00;;;33.74;25.95;99785.31;5037238;27;119723;-74
2022/08/24 10:30:19;;;;;;;12.50;4.47;;;31.80;1.00;;;33.89;25.25;99777.06;5059700;27;129951;-74
2022/08/24 10:33:06;;;;;;;22.55;5.30;;;32.00;1.00;;;33.97;25.93;99778.34;5028828;27;128954;-76
2022/08/24 10:35:44;;;;;;;9.07;4.10;;;32.00;1.00;;;33.98;24.27;99791.16;5061084;27;120116;-76
2022/08/24 10:43:32;;;;;;;14.13;3.90;;;31.90;1.00;;;33.98;23.41;99777.88;5060838;27;129968;-77
2022/08/24 10:45:25;;;;;;;13.77;4.43;;;31.90;1.00;;;33.95;24.21;99781.63;4946578;28;129028;-74
2022/08/24 10:48:24;;;;;;;14.05;3.97;;;32.00;1.00;;;34.08;24.27;99772.25;5045965;27;118480;-77
2022/08/24 10:50:59;;;;;;;19.65;4.82;;;32.00;1.00;;;33.83;23.91;99776.91;5016432;27;1325736;-73
2022/08/24 10:53:31;;;;;;;9.20;3.80;;;31.90;1.00;;;34.02;23.78;99775.69;5043402;27;130090;-72
2022/08/24 10:56:11;;;;;;;12.55;4.22;;;32.00;1.00;;;34.09;24.27;99773.81;5029625;27;128883;-78
2022/08/24 10:58:52;;;;;;;10.07;4.00;;;32.00;1.00;;;34.33;23.57;99766.38;5060847;27;121909;-72
2022/08/24 11:01:33;;;;;;;8.93;3.70;;;32.20;1.00;;;34.53;23.97;99773.53;5046859;27;121656;-73